createdAt,value
2018-08-30T00:00:56.777Z,0.00
2018-08-30T00:01:56.753Z,0.00
2018-08-30T00:02:56.938Z,0.00
2018-08-30T00:03:56.911Z,0.00
2018-08-30T00:04:56.887Z,0.00
2018-08-30T00:05:56.664Z,0.00
2018-08-30T00:06:56.639Z,0.00
2018-08-30T00:07:56.818Z,0.00
2018-08-30T00:08:56.794Z,0.00
2018-08-30T00:09:56.569Z,0.00
2018-08-30T00:10:56.545Z,0.00
2018-08-30T00:11:56.823Z,0.00
2018-08-30T00:12:56.504Z,0.00
2018-08-30T00:13:56.479Z,0.00
2018-08-30T00:14:56.456Z,0.00
2018-08-30T00:15:56.435Z,0.00
2018-08-30T00:16:56.613Z,0.00
2018-08-30T00:17:56.435Z,0.00
2018-08-30T00:18:56.360Z,0.00
2018-08-30T00:19:56.339Z,0.00
2018-08-30T00:20:56.319Z,0.00
2018-08-30T00:21:56.300Z,0.00
2018-08-30T00:22:56.280Z,0.00
2018-08-30T00:23:56.260Z,0.00
2018-08-30T00:24:56.226Z,0.00
2018-08-30T00:25:56.203Z,0.00
2018-08-30T00:26:56.179Z,0.00
2018-08-30T00:27:56.158Z,0.00
2018-08-30T00:34:33.550Z,0.00
2018-08-30T00:35:33.531Z,0.00
2018-08-30T00:36:33.304Z,0.00
2018-08-30T00:37:33.274Z,0.00
2018-08-30T00:38:33.259Z,0.00
2018-08-30T00:39:33.427Z,0.00
2018-08-30T00:41:15.572Z,0.00
2018-08-30T00:42:15.537Z,0.00
2018-08-30T00:43:15.310Z,0.00
2018-08-30T00:44:15.486Z,0.00
2018-08-30T00:45:18.691Z,0.00
2018-08-30T00:46:18.060Z,0.00
2018-08-30T00:47:15.416Z,0.00
2018-08-30T00:48:15.394Z,0.00
2018-08-30T00:49:15.377Z,0.00
2018-08-30T00:50:15.348Z,0.00
2018-08-30T00:51:15.321Z,0.00
2018-08-30T00:52:15.297Z,0.00
2018-08-30T00:53:15.273Z,0.00
2018-08-30T00:54:15.048Z,0.00
2018-08-30T00:55:15.226Z,0.00
2018-08-30T00:56:15.000Z,0.00
2018-08-30T00:57:14.978Z,0.00
2018-08-30T00:58:15.158Z,0.00
2018-08-30T00:59:14.929Z,0.00
2018-08-30T01:00:14.911Z,0.00
2018-08-30T01:01:14.884Z,0.00
2018-08-30T01:02:15.062Z,0.00
2018-08-30T01:03:14.848Z,0.00
2018-08-30T01:04:15.017Z,0.00
2018-08-30T01:05:14.790Z,0.00
2018-08-30T01:06:14.764Z,0.00
2018-08-30T01:07:14.744Z,0.00
2018-08-30T01:08:14.727Z,0.00
2018-08-30T01:09:15.151Z,0.00
2018-08-30T01:10:14.670Z,0.00
2018-08-30T01:11:14.648Z,0.00
2018-08-30T01:12:14.628Z,0.00
2018-08-30T01:13:14.602Z,0.00
2018-08-30T01:14:14.577Z,0.00
2018-08-30T01:15:14.554Z,0.00
2018-08-30T01:16:14.730Z,0.00
2018-08-30T01:17:17.328Z,0.00
2018-08-30T01:18:14.687Z,0.00
2018-08-30T01:19:14.461Z,0.00
2018-08-30T01:20:14.636Z,0.00
2018-08-30T01:21:14.614Z,0.00
2018-08-30T01:22:14.387Z,0.00
2018-08-30T01:23:14.565Z,0.00
2018-08-30T01:24:14.543Z,0.00
2018-08-30T01:25:14.315Z,0.00
2018-08-30T01:26:14.292Z,0.00
2018-08-30T01:27:14.266Z,0.00
2018-08-30T01:28:14.253Z,0.00
2018-08-30T01:29:14.219Z,0.00
2018-08-30T01:30:14.197Z,0.00
2018-08-30T01:31:14.171Z,0.00
2018-08-30T01:32:14.154Z,0.00
2018-08-30T01:33:14.577Z,0.00
2018-08-30T01:34:14.309Z,0.00
2018-08-30T01:35:14.284Z,0.00
2018-08-30T01:36:14.254Z,0.00
2018-08-30T01:37:14.234Z,0.00
2018-08-30T01:38:56.659Z,0.00
2018-08-30T01:39:56.336Z,0.00
2018-08-30T01:40:56.310Z,0.00
2018-08-30T01:41:56.132Z,0.00
2018-08-30T01:42:56.060Z,0.00
2018-08-30T01:43:56.050Z,0.00
2018-08-30T01:44:56.012Z,0.00
2018-08-30T01:45:55.993Z,0.00
2018-08-30T01:46:56.168Z,0.00
2018-08-30T01:47:56.143Z,0.00
2018-08-30T01:48:56.121Z,0.00
2018-08-30T01:49:55.896Z,0.00
2018-08-30T01:51:40.845Z,0.00
2018-08-30T01:52:37.999Z,0.00
2018-08-30T01:53:37.973Z,0.00
2018-08-30T01:54:37.956Z,0.00
2018-08-30T01:56:20.079Z,0.00
2018-08-30T01:57:20.261Z,0.00
2018-08-30T01:58:20.237Z,0.00
2018-08-30T01:59:20.207Z,0.00
2018-08-30T02:00:20.183Z,0.00
2018-08-30T02:01:20.158Z,0.00
2018-08-30T02:02:20.135Z,0.00
2018-08-30T02:03:20.113Z,0.00
2018-08-30T02:04:19.893Z,0.00
2018-08-30T02:05:19.873Z,0.00
2018-08-30T02:06:19.839Z,0.00
2018-08-30T02:07:19.819Z,0.00
2018-08-30T02:08:19.789Z,0.00
2018-08-30T02:09:19.765Z,0.00
2018-08-30T02:10:19.743Z,0.00
2018-08-30T02:11:19.718Z,0.00
2018-08-30T02:12:19.697Z,0.00
2018-08-30T02:13:20.884Z,0.00
2018-08-30T02:14:19.647Z,0.00
2018-08-30T02:15:19.627Z,0.00
2018-08-30T02:16:19.600Z,0.00
2018-08-30T02:17:19.576Z,0.00
2018-08-30T02:18:19.554Z,0.00
2018-08-30T02:19:19.532Z,0.00
2018-08-30T02:20:19.505Z,0.00
2018-08-30T02:21:19.491Z,0.00
2018-08-30T02:22:19.461Z,0.00
2018-08-30T02:23:19.435Z,0.00
2018-08-30T02:24:19.410Z,0.00
2018-08-30T02:25:19.386Z,0.00
2018-08-30T02:26:19.364Z,0.00
2018-08-30T02:27:19.340Z,0.00
2018-08-30T02:28:19.316Z,0.00
2018-08-30T02:29:19.295Z,0.00
2018-08-30T02:30:19.269Z,0.00
2018-08-30T02:31:19.246Z,0.00
2018-08-30T02:32:19.421Z,0.00
2018-08-30T02:33:19.194Z,0.00
2018-08-30T02:34:19.171Z,0.00
2018-08-30T02:36:01.502Z,0.00
2018-08-30T02:37:43.632Z,0.00
2018-08-30T02:38:43.404Z,0.00
2018-08-30T02:40:28.358Z,0.00
2018-08-30T02:42:11.087Z,0.00
2018-08-30T02:43:07.834Z,0.00
2018-08-30T02:44:10.733Z,0.00
2018-08-30T02:45:07.783Z,0.00
2018-08-30T02:46:07.557Z,0.00
2018-08-30T02:47:07.736Z,0.00
2018-08-30T02:48:07.708Z,0.00
2018-08-30T02:49:07.742Z,0.00
2018-08-30T02:50:49.812Z,0.00
2018-08-30T02:51:49.788Z,0.00
2018-08-30T02:52:49.561Z,0.00
2018-08-30T02:53:49.533Z,0.00
2018-08-30T02:54:49.507Z,0.00
2018-08-30T02:55:49.689Z,0.00
2018-08-30T02:56:49.459Z,0.00
2018-08-30T02:57:49.434Z,0.00
2018-08-30T02:58:49.411Z,0.00
2018-08-30T02:59:49.385Z,0.00
2018-08-30T03:00:49.359Z,0.00
2018-08-30T03:01:49.333Z,0.00
2018-08-30T03:02:49.511Z,0.00
2018-08-30T03:03:49.283Z,0.00
2018-08-30T03:04:49.258Z,0.00
2018-08-30T03:05:49.233Z,0.00
2018-08-30T03:06:49.209Z,0.00
2018-08-30T03:07:49.183Z,0.00
2018-08-30T03:08:49.159Z,0.00
2018-08-30T03:09:49.139Z,0.00
2018-08-30T03:10:49.111Z,0.00
2018-08-30T03:11:49.088Z,0.00
2018-08-30T03:12:49.060Z,0.00
2018-08-30T03:13:49.038Z,0.00
2018-08-30T03:14:49.012Z,0.00
2018-08-30T03:15:48.995Z,0.00
2018-08-30T03:16:48.962Z,0.00
2018-08-30T03:17:48.936Z,0.00
2018-08-30T03:18:48.911Z,0.00
2018-08-30T03:19:48.886Z,0.00
2018-08-30T03:20:49.063Z,0.00
2018-08-30T03:21:48.837Z,0.00
2018-08-30T03:22:49.016Z,0.00
2018-08-30T03:23:48.788Z,0.00
2018-08-30T03:24:48.762Z,0.00
2018-08-30T03:25:48.735Z,0.00
2018-08-30T03:26:48.712Z,0.00
2018-08-30T03:27:48.685Z,0.00
2018-08-30T03:28:48.660Z,0.00
2018-08-30T03:29:48.635Z,0.00
2018-08-30T03:30:48.697Z,0.00
2018-08-30T03:31:48.587Z,0.00
2018-08-30T03:32:48.563Z,0.00
2018-08-30T03:33:48.539Z,0.00
2018-08-30T03:34:48.509Z,0.00
2018-08-30T03:35:48.686Z,0.00
2018-08-30T03:36:48.458Z,0.00
2018-08-30T03:37:48.433Z,0.00
2018-08-30T03:38:48.410Z,0.00
2018-08-30T03:39:48.385Z,0.00
2018-08-30T03:40:48.358Z,0.00
2018-08-30T03:41:48.333Z,0.00
2018-08-30T03:42:48.310Z,0.00
2018-08-30T03:43:48.484Z,0.00
2018-08-30T03:44:48.459Z,0.00
2018-08-30T03:45:48.232Z,0.00
2018-08-30T03:46:48.284Z,0.00
2018-08-30T03:47:48.181Z,0.00
2018-08-30T03:48:48.156Z,0.00
2018-08-30T03:49:48.133Z,0.00
2018-08-30T03:50:48.107Z,0.00
2018-08-30T03:51:48.080Z,0.00
2018-08-30T03:52:48.060Z,0.00
2018-08-30T03:53:48.030Z,0.00
2018-08-30T03:54:48.011Z,0.00
2018-08-30T03:55:47.980Z,0.00
2018-08-30T03:56:47.955Z,0.00
2018-08-30T03:57:47.930Z,0.00
2018-08-30T03:58:47.905Z,0.00
2018-08-30T03:59:47.884Z,0.00
2018-08-30T04:00:47.856Z,4.00
2018-08-30T04:01:47.829Z,4.00
2018-08-30T04:02:47.855Z,4.00
2018-08-30T04:03:47.778Z,4.00
2018-08-30T04:04:47.754Z,4.00
2018-08-30T04:05:47.734Z,4.00
2018-08-30T04:06:47.705Z,8.00
2018-08-30T04:07:47.682Z,8.00
2018-08-30T04:08:47.855Z,8.00
2018-08-30T04:09:47.640Z,8.00
2018-08-30T04:10:47.603Z,12.00
2018-08-30T04:11:47.579Z,12.00
2018-08-30T04:12:47.553Z,12.00
2018-08-30T04:13:47.532Z,20.00
2018-08-30T04:14:47.502Z,20.00
2018-08-30T04:15:47.476Z,20.00
2018-08-30T04:16:47.451Z,24.00
2018-08-30T04:17:47.427Z,24.00
2018-08-30T04:18:47.401Z,28.00
2018-08-30T04:19:47.377Z,32.00
2018-08-30T04:20:47.351Z,36.00
2018-08-30T04:21:47.326Z,36.00
2018-08-30T04:22:47.306Z,44.00
2018-08-30T04:23:47.275Z,48.00
2018-08-30T04:24:47.250Z,48.00
2018-08-30T04:25:47.224Z,56.00
2018-08-30T04:26:47.199Z,56.00
2018-08-30T04:27:47.174Z,64.00
2018-08-30T04:28:47.149Z,68.00
2018-08-30T04:29:47.127Z,76.00
2018-08-30T04:30:47.099Z,76.00
2018-08-30T04:31:47.073Z,84.00
2018-08-30T04:32:47.048Z,88.00
2018-08-30T04:33:47.023Z,92.00
2018-08-30T04:34:46.998Z,92.00
2018-08-30T04:35:46.972Z,100.00
2018-08-30T04:36:46.949Z,96.00
2018-08-30T04:37:46.920Z,92.00
2018-08-30T04:38:47.152Z,104.00
2018-08-30T04:39:46.869Z,100.00
2018-08-30T04:40:46.848Z,104.00
2018-08-30T04:41:46.820Z,100.00
2018-08-30T04:42:46.867Z,112.00
2018-08-30T04:43:46.770Z,120.00
2018-08-30T04:44:46.744Z,116.00
2018-08-30T04:45:46.724Z,108.00
2018-08-30T04:46:46.697Z,132.00
2018-08-30T04:47:46.671Z,136.00
2018-08-30T04:48:46.645Z,136.00
2018-08-30T04:49:46.619Z,148.00
2018-08-30T04:50:46.894Z,160.00
2018-08-30T04:51:46.570Z,160.00
2018-08-30T04:52:46.544Z,128.00
2018-08-30T04:53:46.523Z,128.00
2018-08-30T04:54:46.497Z,148.00
2018-08-30T04:55:46.469Z,136.00
2018-08-30T04:56:46.447Z,180.00
2018-08-30T04:57:46.422Z,216.00
2018-08-30T04:58:46.399Z,212.00
2018-08-30T04:59:46.371Z,220.00
2018-08-30T05:00:46.344Z,260.00
2018-08-30T05:01:46.358Z,280.00
2018-08-30T05:02:46.293Z,284.00
2018-08-30T05:03:46.268Z,328.00
2018-08-30T05:04:46.242Z,336.00
2018-08-30T05:05:46.229Z,336.00
2018-08-30T05:06:46.199Z,348.00
2018-08-30T05:07:46.217Z,360.00
2018-08-30T05:08:46.143Z,368.00
2018-08-30T05:09:46.117Z,364.00
2018-08-30T05:10:46.095Z,356.00
2018-08-30T05:11:46.067Z,344.00
2018-08-30T05:12:46.045Z,332.00
2018-08-30T05:13:46.016Z,352.00
2018-08-30T05:14:45.991Z,356.00
2018-08-30T05:15:45.966Z,372.00
2018-08-30T05:16:45.942Z,392.00
2018-08-30T05:17:45.918Z,412.00
2018-08-30T05:18:45.893Z,448.00
2018-08-30T05:19:45.867Z,488.00
2018-08-30T05:20:45.850Z,524.00
2018-08-30T05:21:45.814Z,580.00
2018-08-30T05:22:45.791Z,680.00
2018-08-30T05:23:45.765Z,812.00
2018-08-30T05:24:45.740Z,932.00
2018-08-30T05:25:45.719Z,1076.00
2018-08-30T05:26:45.691Z,1200.00
2018-08-30T05:27:45.666Z,1320.00
2018-08-30T05:28:45.643Z,1436.00
2018-08-30T05:29:45.644Z,1548.00
2018-08-30T05:30:45.596Z,1696.00
2018-08-30T05:31:45.566Z,1848.00
2018-08-30T05:32:45.544Z,2000.00
2018-08-30T05:33:45.514Z,2200.00
2018-08-30T05:34:45.488Z,2392.00
2018-08-30T05:35:45.516Z,2588.00
2018-08-30T05:36:45.438Z,2804.00
2018-08-30T05:37:45.414Z,2948.00
2018-08-30T05:38:45.390Z,3120.00
2018-08-30T05:39:45.368Z,3320.00
2018-08-30T05:40:45.343Z,3316.00
2018-08-30T05:41:45.315Z,3316.00
2018-08-30T05:42:45.287Z,3436.00
2018-08-30T05:43:45.261Z,3496.00
2018-08-30T05:44:45.415Z,3324.00
2018-08-30T05:45:45.212Z,3408.00
2018-08-30T05:46:45.189Z,3064.00
2018-08-30T05:47:45.165Z,2820.00
2018-08-30T05:48:45.136Z,2780.00
2018-08-30T05:49:45.121Z,2700.00
2018-08-30T05:50:45.089Z,2472.00
2018-08-30T05:51:45.063Z,2224.00
2018-08-30T05:52:45.044Z,1880.00
2018-08-30T05:53:45.011Z,1740.00
2018-08-30T05:54:44.987Z,1760.00
2018-08-30T05:55:44.960Z,1864.00
2018-08-30T05:56:44.979Z,1916.00
2018-08-30T05:57:44.915Z,1948.00
2018-08-30T05:58:44.887Z,1932.00
2018-08-30T05:59:44.861Z,2004.00
2018-08-30T06:00:44.838Z,1964.00
2018-08-30T06:01:44.811Z,2040.00
2018-08-30T06:02:44.785Z,2028.00
2018-08-30T06:03:44.760Z,1952.00
2018-08-30T06:04:44.747Z,1924.00
2018-08-30T06:05:44.714Z,1928.00
2018-08-30T06:06:44.688Z,1980.00
2018-08-30T06:07:44.663Z,2096.00
2018-08-30T06:08:44.640Z,2216.00
2018-08-30T06:09:44.615Z,2320.00
2018-08-30T06:10:44.588Z,2204.00
2018-08-30T06:11:44.561Z,2256.00
2018-08-30T06:12:44.536Z,2532.00
2018-08-30T06:13:44.513Z,2764.00
2018-08-30T06:14:44.489Z,2744.00
2018-08-30T06:15:44.467Z,2848.00
2018-08-30T06:16:44.438Z,2968.00
2018-08-30T06:17:44.430Z,2768.00
2018-08-30T06:18:44.388Z,2816.00
2018-08-30T06:19:44.363Z,2856.00
2018-08-30T06:20:44.338Z,3116.00
2018-08-30T06:21:44.311Z,2776.00
2018-08-30T06:22:44.287Z,2156.00
2018-08-30T06:23:44.264Z,2696.00
2018-08-30T06:24:44.237Z,2824.00
2018-08-30T06:25:44.215Z,3120.00
2018-08-30T06:26:44.200Z,3256.00
2018-08-30T06:27:44.166Z,3080.00
2018-08-30T06:28:44.140Z,2892.00
2018-08-30T06:29:44.113Z,2904.00
2018-08-30T06:30:44.089Z,3708.00
2018-08-30T06:31:44.073Z,3672.00
2018-08-30T06:32:44.104Z,3148.00
2018-08-30T06:33:44.014Z,3156.00
2018-08-30T06:34:44.069Z,3600.00
2018-08-30T06:35:43.964Z,4004.00
2018-08-30T06:36:43.943Z,3744.00
2018-08-30T06:37:43.916Z,3240.00
2018-08-30T06:38:43.971Z,3728.00
2018-08-30T06:39:43.867Z,3616.00
2018-08-30T06:40:43.841Z,3336.00
2018-08-30T06:41:43.818Z,2812.00
2018-08-30T06:42:43.791Z,2604.00
2018-08-30T06:43:44.017Z,2908.00
2018-08-30T06:44:43.745Z,2664.00
2018-08-30T06:45:43.719Z,2840.00
2018-08-30T06:46:43.698Z,3400.00
2018-08-30T06:47:43.668Z,4188.00
2018-08-30T06:48:43.749Z,4528.00
2018-08-30T06:49:43.621Z,4584.00
2018-08-30T06:50:43.596Z,4612.00
2018-08-30T06:51:43.569Z,4616.00
2018-08-30T06:52:43.546Z,4400.00
2018-08-30T06:53:43.521Z,4044.00
2018-08-30T06:54:43.494Z,3896.00
2018-08-30T06:55:43.477Z,4044.00
2018-08-30T06:56:43.445Z,3964.00
2018-08-30T06:57:43.424Z,4284.00
2018-08-30T06:58:43.398Z,4448.00
2018-08-30T06:59:43.384Z,4224.00
2018-08-30T07:00:43.347Z,3972.00
2018-08-30T07:01:43.321Z,3760.00
2018-08-30T07:02:43.298Z,2768.00
2018-08-30T07:03:43.273Z,2392.00
2018-08-30T07:04:43.252Z,2376.00
2018-08-30T07:05:43.224Z,3280.00
2018-08-30T07:06:43.196Z,4368.00
2018-08-30T07:07:43.171Z,4436.00
2018-08-30T07:08:43.147Z,4496.00
2018-08-30T07:09:43.125Z,5436.00
2018-08-30T07:10:43.100Z,5144.00
2018-08-30T07:11:43.076Z,6440.00
2018-08-30T07:12:43.050Z,6848.00
2018-08-30T07:13:43.024Z,7816.00
2018-08-30T07:14:43.080Z,8892.00
2018-08-30T07:15:42.975Z,9920.00
2018-08-30T07:16:42.951Z,9164.00
2018-08-30T07:17:42.928Z,9036.00
2018-08-30T07:18:43.203Z,7864.00
2018-08-30T07:19:42.876Z,6420.00
2018-08-30T07:20:42.852Z,5944.00
2018-08-30T07:21:42.834Z,7332.00
2018-08-30T07:22:42.803Z,6400.00
2018-08-30T07:23:42.778Z,4936.00
2018-08-30T07:24:42.754Z,4356.00
2018-08-30T07:25:42.729Z,4904.00
2018-08-30T07:26:42.705Z,5624.00
2018-08-30T07:27:42.678Z,6584.00
2018-08-30T07:28:42.778Z,4960.00
2018-08-30T07:29:42.633Z,6160.00
2018-08-30T07:30:42.622Z,7740.00
2018-08-30T07:31:42.581Z,7840.00
2018-08-30T07:32:42.560Z,7316.00
2018-08-30T07:33:42.535Z,7660.00
2018-08-30T07:34:42.647Z,7856.00
2018-08-30T07:35:42.481Z,9316.00
2018-08-30T07:36:42.459Z,9948.00
2018-08-30T07:37:42.433Z,10696.00
2018-08-30T07:38:42.408Z,11460.00
2018-08-30T07:39:42.384Z,10968.00
2018-08-30T07:40:43.372Z,8808.00
2018-08-30T07:41:42.537Z,9452.00
2018-08-30T07:42:42.514Z,10308.00
2018-08-30T07:43:42.287Z,11096.00
2018-08-30T07:44:42.382Z,8908.00
2018-08-30T07:45:42.236Z,7872.00
2018-08-30T07:46:42.214Z,7920.00
2018-08-30T07:47:42.187Z,7556.00
2018-08-30T07:48:42.170Z,7624.00
2018-08-30T07:49:42.143Z,8476.00
2018-08-30T07:50:42.117Z,8732.00
2018-08-30T07:51:42.297Z,7088.00
2018-08-30T07:52:42.272Z,6392.00
2018-08-30T07:53:42.245Z,6964.00
2018-08-30T07:54:42.220Z,6688.00
2018-08-30T07:55:41.995Z,7064.00
2018-08-30T07:56:41.968Z,8148.00
2018-08-30T07:57:41.942Z,8892.00
2018-08-30T07:58:41.921Z,9780.00
2018-08-30T07:59:41.893Z,8788.00
2018-08-30T08:00:42.075Z,9456.00
2018-08-30T08:01:41.846Z,8532.00
2018-08-30T08:02:41.822Z,9844.00
2018-08-30T08:03:41.807Z,9952.00
2018-08-30T08:04:41.975Z,11584.00
2018-08-30T08:05:41.747Z,11236.00
2018-08-30T08:06:41.927Z,11728.00
2018-08-30T08:07:41.899Z,12484.00
2018-08-30T08:08:41.676Z,13020.00
2018-08-30T08:09:41.651Z,12960.00
2018-08-30T08:10:41.627Z,12388.00
2018-08-30T08:11:41.603Z,12732.00
2018-08-30T08:12:41.596Z,13168.00
2018-08-30T08:13:41.553Z,13204.00
2018-08-30T08:14:41.527Z,13984.00
2018-08-30T08:15:41.720Z,12760.00
2018-08-30T08:16:41.729Z,12920.00
2018-08-30T08:17:41.464Z,12228.00
2018-08-30T08:18:41.438Z,11416.00
2018-08-30T08:19:41.412Z,10664.00
2018-08-30T08:20:41.386Z,10108.00
2018-08-30T08:21:41.359Z,8568.00
2018-08-30T08:22:41.335Z,9360.00
2018-08-30T08:23:41.513Z,9340.00
2018-08-30T08:24:41.290Z,9968.00
2018-08-30T08:25:41.266Z,11304.00
2018-08-30T08:26:41.441Z,10600.00
2018-08-30T08:27:41.419Z,11412.00
2018-08-30T08:28:41.191Z,14024.00
2018-08-30T08:29:41.169Z,14624.00
2018-08-30T08:30:41.148Z,14504.00
2018-08-30T08:31:41.120Z,15212.00
2018-08-30T08:32:41.097Z,16152.00
2018-08-30T08:33:41.107Z,14932.00
2018-08-30T08:34:41.049Z,12352.00
2018-08-30T08:35:41.023Z,12052.00
2018-08-30T08:36:41.000Z,12304.00
2018-08-30T08:37:40.977Z,13048.00
2018-08-30T08:38:40.951Z,12916.00
2018-08-30T08:39:40.928Z,13960.00
2018-08-30T08:40:40.906Z,15304.00
2018-08-30T08:41:40.886Z,16976.00
2018-08-30T08:42:41.059Z,20928.00
2018-08-30T08:43:40.833Z,20192.00
2018-08-30T08:44:40.815Z,19136.00
2018-08-30T08:45:40.783Z,16188.00
2018-08-30T08:46:40.761Z,18496.00
2018-08-30T08:47:40.793Z,23424.00
2018-08-30T08:48:40.712Z,21376.00
2018-08-30T08:49:40.892Z,19488.00
2018-08-30T08:50:40.869Z,17604.00
2018-08-30T08:51:40.845Z,17076.00
2018-08-30T08:52:40.824Z,19552.00
2018-08-30T08:53:40.803Z,18144.00
2018-08-30T08:54:41.177Z,17884.00
2018-08-30T08:55:40.547Z,16952.00
2018-08-30T08:56:40.523Z,15700.00
2018-08-30T08:57:40.505Z,16060.00
2018-08-30T08:58:40.504Z,13936.00
2018-08-30T08:59:40.452Z,13932.00
2018-08-30T09:00:40.434Z,14572.00
2018-08-30T09:01:40.409Z,15104.00
2018-08-30T09:02:40.384Z,14160.00
2018-08-30T09:03:40.561Z,12096.00
2018-08-30T09:04:40.337Z,12400.00
2018-08-30T09:05:40.311Z,12400.00
2018-08-30T09:06:40.288Z,11076.00
2018-08-30T09:07:40.295Z,10720.00
2018-08-30T09:08:40.240Z,10008.00
2018-08-30T09:09:40.220Z,10596.00
2018-08-30T09:10:40.398Z,10660.00
2018-08-30T09:11:40.170Z,9232.00
2018-08-30T09:12:40.153Z,7736.00
2018-08-30T09:13:40.167Z,7068.00
2018-08-30T09:14:40.101Z,7736.00
2018-08-30T09:15:40.077Z,7804.00
2018-08-30T09:16:40.059Z,8868.00
2018-08-30T09:17:40.029Z,7384.00
2018-08-30T09:18:40.005Z,5784.00
2018-08-30T09:19:40.182Z,5704.00
2018-08-30T09:20:39.966Z,5356.00
2018-08-30T09:21:40.137Z,6176.00
2018-08-30T09:22:39.910Z,7992.00
2018-08-30T09:23:40.090Z,12412.00
2018-08-30T09:24:39.871Z,13736.00
2018-08-30T09:25:40.040Z,13564.00
2018-08-30T09:26:42.643Z,15540.00
2018-08-30T09:27:39.993Z,20480.00
2018-08-30T09:28:39.984Z,25024.00
2018-08-30T09:29:39.945Z,26432.00
2018-08-30T09:30:39.921Z,27264.00
2018-08-30T09:31:39.895Z,34080.00
2018-08-30T09:32:39.673Z,37568.00
2018-08-30T09:33:39.652Z,34720.00
2018-08-30T09:34:39.829Z,35136.00
2018-08-30T09:36:21.954Z,27296.00
2018-08-30T09:37:21.729Z,25792.00
2018-08-30T09:38:21.705Z,27104.00
2018-08-30T09:39:21.689Z,27744.00
2018-08-30T09:40:21.662Z,25024.00
2018-08-30T09:42:03.992Z,28000.00
2018-08-30T09:43:03.767Z,26816.00
2018-08-30T09:44:06.566Z,19776.00
2018-08-30T09:45:03.724Z,15680.00
2018-08-30T09:46:03.705Z,15040.00
2018-08-30T09:47:03.878Z,18880.00
2018-08-30T09:48:03.860Z,20960.00
2018-08-30T09:49:03.833Z,16572.00
2018-08-30T09:50:03.815Z,13284.00
2018-08-30T09:51:03.584Z,12992.00
2018-08-30T09:52:03.563Z,13428.00
2018-08-30T09:53:03.553Z,13660.00
2018-08-30T09:54:03.533Z,14840.00
2018-08-30T09:55:03.499Z,18976.00
2018-08-30T09:56:03.729Z,22656.00
2018-08-30T09:57:03.615Z,25536.00
2018-08-30T09:58:03.458Z,26368.00
2018-08-30T09:59:03.411Z,23360.00
2018-08-30T10:00:03.395Z,18848.00
2018-08-30T10:01:03.397Z,20320.00
2018-08-30T10:02:03.337Z,22976.00
2018-08-30T10:03:03.314Z,26816.00
2018-08-30T10:04:03.292Z,26368.00
2018-08-30T10:05:03.277Z,24832.00
2018-08-30T10:06:03.458Z,22400.00
2018-08-30T10:07:04.237Z,17448.00
2018-08-30T10:08:03.204Z,17632.00
2018-08-30T10:09:03.184Z,17484.00
2018-08-30T10:10:03.168Z,14032.00
2018-08-30T10:11:03.133Z,12568.00
2018-08-30T10:12:03.116Z,12392.00
2018-08-30T10:13:03.089Z,12492.00
2018-08-30T10:14:03.067Z,12904.00
2018-08-30T10:15:03.044Z,15656.00
2018-08-30T10:16:03.052Z,19712.00
2018-08-30T10:17:03.004Z,28480.00
2018-08-30T10:18:02.978Z,26400.00
2018-08-30T10:19:02.953Z,31840.00
2018-08-30T10:20:02.931Z,35488.00
2018-08-30T10:21:02.908Z,38080.00
2018-08-30T10:22:02.884Z,38208.00
2018-08-30T10:23:02.860Z,34752.00
2018-08-30T10:24:02.847Z,29472.00
2018-08-30T10:25:02.817Z,28032.00
2018-08-30T10:26:02.797Z,25920.00
2018-08-30T10:27:02.771Z,22336.00
2018-08-30T10:28:02.758Z,18432.00
2018-08-30T10:29:02.734Z,18624.00
2018-08-30T10:30:02.706Z,21152.00
2018-08-30T10:31:02.887Z,23232.00
2018-08-30T10:32:02.861Z,26944.00
2018-08-30T10:33:02.657Z,28512.00
2018-08-30T10:34:02.614Z,31136.00
2018-08-30T10:35:02.595Z,30752.00
2018-08-30T10:36:02.567Z,25824.00
2018-08-30T10:37:02.666Z,20736.00
2018-08-30T10:38:02.524Z,14340.00
2018-08-30T10:39:02.511Z,12384.00
2018-08-30T10:40:02.477Z,9352.00
2018-08-30T10:41:02.504Z,8228.00
2018-08-30T10:42:02.638Z,9316.00
2018-08-30T10:43:02.661Z,8080.00
2018-08-30T10:44:02.387Z,8588.00
2018-08-30T10:45:02.365Z,14668.00
2018-08-30T10:46:02.342Z,17596.00
2018-08-30T10:47:02.318Z,19840.00
2018-08-30T10:48:02.298Z,20704.00
2018-08-30T10:49:02.270Z,24384.00
2018-08-30T10:50:02.249Z,25440.00
2018-08-30T10:51:02.224Z,24672.00
2018-08-30T10:52:02.215Z,22816.00
2018-08-30T10:53:02.182Z,21536.00
2018-08-30T10:54:02.161Z,22528.00
2018-08-30T10:55:02.155Z,23424.00
2018-08-30T10:56:02.114Z,22848.00
2018-08-30T10:57:02.295Z,19680.00
2018-08-30T10:58:02.077Z,16852.00
2018-08-30T10:59:02.249Z,15360.00
2018-08-30T11:00:02.024Z,10620.00
2018-08-30T11:01:02.246Z,10600.00
2018-08-30T11:02:01.988Z,13060.00
2018-08-30T11:03:01.957Z,12568.00
2018-08-30T11:04:01.943Z,9316.00
2018-08-30T11:05:01.906Z,10388.00
2018-08-30T11:06:01.887Z,11880.00
2018-08-30T11:07:01.883Z,10988.00
2018-08-30T11:08:01.865Z,10896.00
2018-08-30T11:09:01.815Z,13224.00
2018-08-30T11:10:01.790Z,15192.00
2018-08-30T11:11:01.766Z,17632.00
2018-08-30T11:12:01.745Z,16264.00
2018-08-30T11:13:01.885Z,13540.00
2018-08-30T11:14:01.703Z,13996.00
2018-08-30T11:15:01.676Z,13652.00
2018-08-30T11:16:01.653Z,16092.00
2018-08-30T11:17:01.631Z,11204.00
2018-08-30T11:18:01.607Z,13112.00
2018-08-30T11:19:01.583Z,15920.00
2018-08-30T11:20:01.561Z,13980.00
2018-08-30T11:21:01.535Z,13664.00
2018-08-30T11:22:01.512Z,15496.00
2018-08-30T11:23:01.691Z,16128.00
2018-08-30T11:24:01.464Z,17024.00
2018-08-30T11:25:01.443Z,18240.00
2018-08-30T11:26:01.419Z,20928.00
2018-08-30T11:27:01.397Z,17536.00
2018-08-30T11:28:01.372Z,17460.00
2018-08-30T11:29:01.346Z,16572.00
2018-08-30T11:30:01.324Z,17388.00
2018-08-30T11:31:01.299Z,17704.00
2018-08-30T11:32:01.279Z,15168.00
2018-08-30T11:33:01.253Z,13612.00
2018-08-30T11:34:01.231Z,12652.00
2018-08-30T11:35:01.205Z,12044.00
2018-08-30T11:36:01.182Z,11376.00
2018-08-30T11:37:01.162Z,12184.00
2018-08-30T11:38:01.144Z,13032.00
2018-08-30T11:39:01.114Z,14068.00
2018-08-30T11:40:01.092Z,14748.00
2018-08-30T11:41:01.065Z,12772.00
2018-08-30T11:42:01.041Z,11360.00
2018-08-30T11:43:01.017Z,12036.00
2018-08-30T11:44:00.995Z,15444.00
2018-08-30T11:45:00.998Z,18024.00
2018-08-30T11:46:00.949Z,19872.00
2018-08-30T11:47:00.927Z,24512.00
2018-08-30T11:48:00.904Z,22240.00
2018-08-30T11:49:00.878Z,22560.00
2018-08-30T11:50:00.857Z,20064.00
2018-08-30T11:51:00.830Z,18848.00
2018-08-30T11:52:00.807Z,16372.00
2018-08-30T11:53:00.781Z,14596.00
2018-08-30T11:54:00.763Z,12644.00
2018-08-30T11:55:00.734Z,11316.00
2018-08-30T11:56:00.733Z,9752.00
2018-08-30T11:57:00.694Z,9512.00
2018-08-30T11:58:00.670Z,9300.00
2018-08-30T11:59:00.650Z,9532.00
2018-08-30T12:00:00.619Z,7376.00
2018-08-30T12:01:00.601Z,7972.00
2018-08-30T12:02:00.572Z,8816.00
2018-08-30T12:03:00.547Z,9208.00
2018-08-30T12:04:00.525Z,8448.00
2018-08-30T12:05:00.498Z,8600.00
2018-08-30T12:06:00.476Z,6596.00
2018-08-30T12:07:00.520Z,5492.00
2018-08-30T12:08:00.547Z,6620.00
2018-08-30T12:09:00.410Z,7744.00
2018-08-30T12:10:00.384Z,7456.00
2018-08-30T12:11:00.703Z,7184.00
2018-08-30T12:12:00.334Z,11068.00
2018-08-30T12:13:00.309Z,17340.00
2018-08-30T12:14:00.285Z,13324.00
2018-08-30T12:15:00.260Z,14556.00
2018-08-30T12:18:49.052Z,17360.00
2018-08-30T12:19:49.020Z,18176.00
2018-08-30T12:20:49.169Z,17396.00
2018-08-30T12:21:48.973Z,13768.00
2018-08-30T12:22:48.953Z,13652.00
2018-08-30T12:23:48.722Z,12484.00
2018-08-30T12:24:48.698Z,10224.00
2018-08-30T12:26:31.028Z,11644.00
2018-08-30T12:28:13.164Z,12524.00
2018-08-30T12:29:13.237Z,15376.00
2018-08-30T12:30:16.586Z,16472.00
2018-08-30T12:31:55.241Z,18432.00
2018-08-30T12:32:55.219Z,18976.00
2018-08-30T12:33:55.037Z,17172.00
2018-08-30T12:34:55.133Z,12224.00
2018-08-30T12:35:55.243Z,10312.00
2018-08-30T12:37:38.512Z,11852.00
2018-08-30T12:39:19.473Z,13448.00
2018-08-30T12:40:19.318Z,12540.00
2018-08-30T12:41:19.150Z,15316.00
2018-08-30T12:43:01.693Z,19904.00
2018-08-30T12:44:01.461Z,22112.00